Time;durP1;ratioP1;P1;durP2;ratioP2;P2;SDS_P1;SDS_P2;PMS_P1;PMS_P2;Temp;Humidity;BMP_temperature;BMP_pressure;BME280_temperature;BME280_humidity;BME280_pressure;Samples;Min_cycle;Max_cycle;Signal;HPM_P1;HPM_P2
2022/05/08 00:01:15;;;;;;;2.50;2.30;;;23.40;52.90;;;;;;4993113;28;20422;-84
2022/05/08 00:03:43;;;;;;;2.30;2.10;;;23.40;53.00;;;;;;4993218;28;20405;-84
2022/05/08 00:06:12;;;;;;;2.23;2.03;;;23.40;52.90;;;;;;4993082;28;20409;-84
2022/05/08 00:08:41;;;;;;;2.40;2.03;;;23.40;53.00;;;;;;4993634;28;20504;-84
2022/05/08 00:11:07;;;;;;;1.93;1.80;;;23.40;52.70;;;;;;4993619;28;20417;-84
2022/05/08 00:13:35;;;;;;;2.90;2.23;;;23.40;52.90;;;;;;4993075;28;20439;-84
2022/05/08 00:16:01;;;;;;;1.90;1.70;;;23.40;52.90;;;;;;4992996;28;20413;-84
2022/05/08 00:18:27;;;;;;;2.23;1.60;;;23.40;52.90;;;;;;4992064;28;20469;-84
2022/05/08 00:20:53;;;;;;;2.60;2.37;;;23.40;52.90;;;;;;4992989;28;20430;-84
2022/05/08 00:23:22;;;;;;;2.10;1.63;;;23.40;52.90;;;;;;4992359;28;20479;-84
2022/05/08 00:25:48;;;;;;;2.50;2.30;;;23.40;52.90;;;;;;4976859;28;20445;-84
2022/05/08 00:35:01;;;;;;;2.10;1.73;;;23.40;52.90;;;;;;4993532;28;20400;-84
2022/05/08 00:37:28;;;;;;;1.87;1.67;;;23.40;53.50;;;;;;4993105;28;20539;-84
2022/05/08 00:39:56;;;;;;;1.90;1.70;;;23.40;53.00;;;;;;4991261;28;20827;-84
2022/05/08 00:42:27;;;;;;;2.13;1.83;;;23.40;53.00;;;;;;4975980;28;20430;-84
2022/05/08 00:44:54;;;;;;;2.03;1.87;;;23.40;53.00;;;;;;4992913;28;20393;-84
2022/05/08 00:47:21;;;;;;;2.30;2.10;;;23.40;53.00;;;;;;4992254;28;20425;-84
2022/05/08 00:49:48;;;;;;;2.00;1.80;;;23.40;52.90;;;;;;4993136;28;20417;-84
2022/05/08 00:52:17;;;;;;;2.07;1.87;;;23.40;52.90;;;;;;4992051;28;20493;-84
2022/05/08 00:54:45;;;;;;;2.20;2.00;;;23.40;52.90;;;;;;4991571;28;20421;-84
2022/05/08 00:57:13;;;;;;;2.00;1.90;;;23.40;52.90;;;;;;4975776;28;20475;-84
2022/05/08 00:59:41;;;;;;;1.90;1.70;;;23.40;52.90;;;;;;4991211;28;20413;-84
2022/05/08 01:02:09;;;;;;;2.20;2.00;;;23.40;52.90;;;;;;4991902;28;20477;-84
2022/05/08 01:04:35;;;;;;;2.13;1.80;;;23.40;52.90;;;;;;4991430;28;20939;-84
2022/05/08 01:10:28;;;;;;;1.80;1.50;;;23.40;52.90;;;;;;4992660;28;20161;-83
2022/05/08 01:12:55;;;;;;;1.83;1.63;;;23.40;53.00;;;;;;4976618;28;20434;-83
2022/05/08 01:15:23;;;;;;;2.10;1.90;;;23.40;53.00;;;;;;4992045;28;20425;-84
2022/05/08 01:17:52;;;;;;;2.23;1.83;;;23.40;53.00;;;;;;4991775;28;20457;-84
2022/05/08 01:20:19;;;;;;;2.30;2.00;;;23.40;53.00;;;;;;4975229;28;20426;-84
2022/05/08 01:22:46;;;;;;;2.20;1.90;;;23.40;53.00;;;;;;4991772;28;21004;-83
2022/05/08 01:25:18;;;;;;;2.10;1.90;;;23.40;53.00;;;;;;4991278;28;20418;-83
2022/05/08 01:27:45;;;;;;;2.37;2.00;;;23.40;52.90;;;;;;4991211;28;20417;-83
2022/05/08 01:30:11;;;;;;;2.90;2.00;;;23.40;53.00;;;;;;4974575;28;20444;-83
2022/05/08 01:32:39;;;;;;;4.03;2.33;;;23.40;53.00;;;;;;4991126;28;20421;-83
2022/05/08 01:35:06;;;;;;;1.80;1.60;;;23.40;52.90;;;;;;4991158;28;20425;-82
2022/05/08 01:37:31;;;;;;;2.07;1.97;;;23.40;52.90;;;;;;4992102;28;20457;-83
2022/05/08 01:39:58;;;;;;;2.77;2.20;;;23.40;52.90;;;;;;4992045;28;20413;-82
2022/05/08 01:42:27;;;;;;;2.17;1.90;;;23.40;52.90;;;;;;4992355;28;20402;-81
2022/05/08 01:44:53;;;;;;;1.83;1.70;;;23.40;52.90;;;;;;4991539;28;20421;-85
2022/05/08 01:50:08;;;;;;;4.70;2.17;;;23.40;53.00;;;;;;4992368;28;20411;-83
2022/05/08 01:52:35;;;;;;;2.23;2.03;;;23.40;53.00;;;;;;4995761;28;20410;-83
2022/05/08 01:55:02;;;;;;;1.63;1.50;;;23.40;53.00;;;;;;5010664;28;20415;-83
2022/05/08 01:57:28;;;;;;;2.10;1.80;;;23.40;53.00;;;;;;4994117;28;20468;-82
2022/05/08 01:59:54;;;;;;;2.20;1.60;;;23.40;53.00;;;;;;4994435;28;20413;-82
2022/05/08 02:02:20;;;;;;;1.90;1.70;;;23.40;53.00;;;;;;4994040;28;20421;-84
2022/05/08 02:04:47;;;;;;;2.33;1.87;;;23.40;53.00;;;;;;4993756;28;20182;-84
2022/05/08 02:07:13;;;;;;;2.10;1.80;;;23.40;53.00;;;;;;4994070;28;20417;-84
2022/05/08 02:09:49;;;;;;;2.10;1.90;;;23.40;53.00;;;;;;4977664;28;20517;-84
2022/05/08 02:12:15;;;;;;;1.43;1.30;;;23.40;53.00;;;;;;4995147;28;20413;-84
2022/05/08 02:14:49;;;;;;;2.23;1.70;;;23.40;53.00;;;;;;4994204;28;20453;-83
2022/05/08 02:17:15;;;;;;;2.23;2.03;;;23.40;53.00;;;;;;4995742;28;20472;-83
2022/05/08 02:19:48;;;;;;;1.70;1.57;;;23.40;53.00;;;;;;5014342;28;20416;-84
2022/05/08 02:22:20;;;;;;;2.10;1.87;;;23.40;53.00;;;;;;5014148;28;20426;-83
2022/05/08 02:24:49;;;;;;;1.60;1.50;;;23.40;53.00;;;;;;4999850;28;20426;-83
2022/05/08 02:27:20;;;;;;;1.80;1.70;;;23.40;53.00;;;;;;5015039;28;20400;-83
2022/05/08 02:30:00;;;;;;;2.10;1.90;;;23.40;53.00;;;;;;4997560;28;20424;-83
2022/05/08 02:32:28;;;;;;;2.17;1.87;;;23.40;53.00;;;;;;5013511;28;20408;-83
2022/05/08 02:34:55;;;;;;;1.73;1.60;;;23.30;52.90;;;;;;5015114;28;20434;-83
2022/05/08 02:37:21;;;;;;;1.90;1.70;;;23.40;53.00;;;;;;4997942;28;20511;-83
2022/05/08 02:39:48;;;;;;;1.97;1.70;;;23.40;53.00;;;;;;5015186;28;20405;-83
2022/05/08 02:42:17;;;;;;;2.00;1.80;;;23.40;53.00;;;;;;5014898;28;20434;-83
2022/05/08 02:44:44;;;;;;;4.10;1.60;;;23.40;53.00;;;;;;5013405;28;20425;-84
2022/05/08 02:47:11;;;;;;;2.00;1.80;;;23.40;53.00;;;;;;5013626;28;20465;-83
2022/05/08 02:49:42;;;;;;;2.30;1.80;;;23.30;52.90;;;;;;5013721;28;20423;-83
2022/05/08 02:52:09;;;;;;;2.17;1.87;;;23.40;53.00;;;;;;5014777;28;20423;-83
2022/05/08 02:54:40;;;;;;;2.23;2.03;;;23.40;53.10;;;;;;5014682;28;20450;-83
2022/05/08 02:59:51;;;;;;;1.77;1.60;;;23.40;53.00;;;;;;5007087;28;20407;-83
2022/05/08 03:02:19;;;;;;;2.23;1.70;;;23.40;53.10;;;;;;4995311;28;20423;-83
2022/05/08 03:04:46;;;;;;;1.87;1.67;;;23.40;53.10;;;;;;4994913;28;20440;-83
2022/05/08 03:07:16;;;;;;;2.10;1.67;;;23.40;53.10;;;;;;4994280;28;20428;-83
2022/05/08 03:09:44;;;;;;;1.90;1.70;;;23.40;53.10;;;;;;4979011;28;20424;-83
2022/05/08 03:12:11;;;;;;;1.90;1.70;;;23.40;53.10;;;;;;4994318;28;20417;-83
2022/05/08 03:14:41;;;;;;;1.80;1.60;;;23.40;53.10;;;;;;4997591;28;20430;-83
2022/05/08 03:17:07;;;;;;;2.17;1.97;;;23.40;53.10;;;;;;4994830;28;20489;-83
2022/05/08 03:19:36;;;;;;;2.17;1.90;;;23.40;53.10;;;;;;4994503;28;20417;-83
2022/05/08 03:22:06;;;;;;;1.93;1.73;;;23.40;53.10;;;;;;4994816;28;20851;-83
2022/05/08 03:24:32;;;;;;;1.97;1.83;;;23.40;53.10;;;;;;4979391;28;20464;-83
2022/05/08 03:27:06;;;;;;;2.17;1.77;;;23.40;53.10;;;;;;4995806;28;20424;-83
2022/05/08 03:32:58;;;;;;;2.13;1.53;;;23.40;53.10;;;;;;4995023;28;20428;-83
2022/05/08 03:35:29;;;;;;;2.40;1.83;;;23.40;53.10;;;;;;4994943;28;20443;-83
2022/05/08 03:38:01;;;;;;;1.87;1.67;;;23.40;53.10;;;;;;5003533;28;20473;-84
2022/05/08 03:40:29;;;;;;;1.80;1.70;;;23.40;53.10;;;;;;4978869;28;20426;-83
2022/05/08 03:42:56;;;;;;;1.90;1.70;;;23.40;53.70;;;;;;4994206;28;20421;-83
2022/05/08 03:45:28;;;;;;;1.90;1.50;;;23.40;53.10;;;;;;4995375;28;20456;-83
2022/05/08 03:48:01;;;;;;;2.10;1.90;;;23.30;53.10;;;;;;4995105;28;20378;-83
2022/05/08 03:50:30;;;;;;;1.47;1.37;;;23.40;53.10;;;;;;4979469;28;20405;-83
2022/05/08 03:52:58;;;;;;;2.27;2.03;;;23.40;53.10;;;;;;4994405;28;20436;-83
2022/05/08 03:55:25;;;;;;;1.63;1.53;;;23.40;53.10;;;;;;4994693;28;20424;-83
2022/05/08 03:57:57;;;;;;;1.60;1.50;;;23.40;53.10;;;;;;4994037;28;20463;-83
2022/05/08 04:00:31;;;;;;;1.73;1.63;;;23.40;53.10;;;;;;4995047;28;20377;-84
2022/05/08 04:02:59;;;;;;;2.00;1.73;;;23.40;53.10;;;;;;4978837;28;20475;-84
2022/05/08 04:05:29;;;;;;;1.70;1.60;;;23.40;53.10;;;;;;4994157;28;20445;-84
2022/05/08 04:07:55;;;;;;;1.70;1.60;;;23.40;53.10;;;;;;4992928;28;20425;-84
2022/05/08 04:10:23;;;;;;;1.50;1.30;;;23.40;53.10;;;;;;4992427;28;20425;-84
2022/05/08 04:12:53;;;;;;;1.73;1.63;;;23.40;53.10;;;;;;4976619;28;20409;-84
2022/05/08 04:18:05;;;;;;;1.83;1.70;;;23.40;53.10;;;;;;4992769;28;20483;-84
2022/05/08 04:20:31;;;;;;;2.40;1.83;;;23.40;53.10;;;;;;4993427;28;20414;-84
2022/05/08 04:25:43;;;;;;;2.07;1.87;;;23.40;53.10;;;;;;4993571;28;20516;-84
2022/05/08 04:28:11;;;;;;;2.40;1.97;;;23.30;53.10;;;;;;4992234;28;20572;-84
2022/05/08 04:30:40;;;;;;;1.70;1.40;;;23.30;53.10;;;;;;4993144;28;20444;-84
2022/05/08 04:33:06;;;;;;;1.70;1.50;;;23.40;53.20;;;;;;4992284;28;20444;-84
2022/05/08 04:35:34;;;;;;;1.63;1.53;;;23.40;53.20;;;;;;4991557;28;20446;-84
2022/05/08 04:38:00;;;;;;;1.83;1.70;;;23.40;53.20;;;;;;4991639;28;20457;-84
2022/05/08 04:40:27;;;;;;;3.83;1.97;;;23.40;53.20;;;;;;4992598;28;20424;-83
2022/05/08 04:42:54;;;;;;;1.77;1.43;;;23.40;53.20;;;;;;4992536;28;20268;-84
2022/05/08 04:45:27;;;;;;;2.00;1.73;;;23.40;53.20;;;;;;4992503;28;20445;-84
2022/05/08 04:47:58;;;;;;;1.50;1.30;;;23.40;53.30;;;;;;4992521;28;20466;-83
2022/05/08 04:50:30;;;;;;;1.80;1.63;;;23.40;53.20;;;;;;4993045;28;20421;-83
2022/05/08 04:53:02;;;;;;;1.97;1.77;;;23.40;53.20;;;;;;4976442;28;20496;-83
2022/05/08 04:55:31;;;;;;;2.27;1.53;;;23.40;53.30;;;;;;4993285;28;20402;-83
2022/05/08 04:58:00;;;;;;;1.57;1.47;;;23.40;53.20;;;;;;4993735;28;20448;-84
2022/05/08 05:00:30;;;;;;;1.57;1.37;;;23.40;53.20;;;;;;4976342;28;20508;-84
2022/05/08 05:02:59;;;;;;;2.13;1.70;;;23.40;53.30;;;;;;4992390;28;20467;-84
2022/05/08 05:05:31;;;;;;;1.60;1.50;;;23.40;53.20;;;;;;4959881;28;20425;-83
2022/05/08 05:07:57;;;;;;;1.80;1.70;;;23.40;53.20;;;;;;4992270;28;20397;-84
2022/05/08 05:10:25;;;;;;;1.40;1.23;;;23.40;53.20;;;;;;4992543;28;20437;-84
2022/05/08 05:12:54;;;;;;;1.63;1.53;;;23.40;53.20;;;;;;4991939;28;20493;-84
2022/05/08 05:15:20;;;;;;;1.80;1.60;;;23.40;53.20;;;;;;4991834;28;20441;-84
2022/05/08 05:17:49;;;;;;;1.40;1.23;;;23.40;53.20;;;;;;4992437;28;20487;-84
2022/05/08 05:20:20;;;;;;;1.60;1.50;;;23.40;53.20;;;;;;4991325;28;20422;-84
2022/05/08 05:23:07;;;;;;;2.10;1.77;;;23.50;53.30;;;;;;4991580;28;20406;-84
2022/05/08 05:25:37;;;;;;;2.00;1.60;;;23.50;53.30;;;;;;4991393;28;20413;-84
2022/05/08 05:28:06;;;;;;;1.70;1.60;;;23.50;53.30;;;;;;4976025;28;20410;-84
2022/05/08 05:30:35;;;;;;;1.50;1.40;;;23.50;53.30;;;;;;4991392;28;20429;-84
2022/05/08 05:33:05;;;;;;;1.80;1.70;;;23.50;53.30;;;;;;4975972;28;20464;-84
2022/05/08 05:35:32;;;;;;;1.50;1.40;;;23.50;53.30;;;;;;4992340;28;20459;-83
2022/05/08 05:38:00;;;;;;;1.70;1.53;;;23.50;53.30;;;;;;4992760;28;20456;-83
2022/05/08 05:40:33;;;;;;;1.50;1.40;;;23.50;53.30;;;;;;4976808;28;20448;-83
2022/05/08 05:43:00;;;;;;;1.77;1.50;;;23.50;53.30;;;;;;4993110;28;20952;-83
2022/05/08 05:45:27;;;;;;;1.60;1.50;;;23.50;53.30;;;;;;4992266;28;20425;-83
2022/05/08 05:47:59;;;;;;;1.60;1.50;;;23.50;53.30;;;;;;4976650;28;20431;-83
2022/05/08 05:50:31;;;;;;;2.53;1.50;;;23.50;53.30;;;;;;4993410;28;20440;-83
2022/05/08 05:53:01;;;;;;;2.03;1.60;;;23.50;53.30;;;;;;4992561;28;20413;-83
2022/05/08 05:55:29;;;;;;;1.70;1.60;;;23.50;53.30;;;;;;4976123;28;20436;-84
2022/05/08 05:57:57;;;;;;;1.80;1.70;;;23.50;53.30;;;;;;4991935;28;20544;-83
2022/05/08 06:03:29;;;;;;;1.60;1.50;;;23.50;53.30;;;;;;5003007;28;20419;-84
2022/05/08 06:06:00;;;;;;;1.97;1.60;;;23.50;53.30;;;;;;4991776;28;20381;-84
2022/05/08 06:08:26;;;;;;;2.07;1.67;;;23.50;53.30;;;;;;4975295;28;20429;-84
2022/05/08 06:11:02;;;;;;;1.90;1.80;;;23.50;53.30;;;;;;4992130;28;20429;-84
2022/05/08 06:13:29;;;;;;;1.63;1.53;;;23.50;53.30;;;;;;4991685;28;20447;-84
2022/05/08 06:15:55;;;;;;;1.60;1.40;;;23.50;53.30;;;;;;4991837;28;20445;-83
2022/05/08 06:18:22;;;;;;;1.60;1.30;;;23.50;53.30;;;;;;4992163;28;20461;-84
2022/05/08 06:20:50;;;;;;;2.00;1.63;;;23.60;53.40;;;;;;4991410;28;20409;-83
2022/05/08 06:23:20;;;;;;;1.47;1.20;;;23.60;53.40;;;;;;4991074;28;20911;-84
2022/05/08 06:29:18;;;;;;;1.70;1.40;;;23.60;53.40;;;;;;4992214;28;20393;-83
2022/05/08 06:31:56;;;;;;;2.30;1.60;;;23.60;53.50;;;;;;4991196;28;20488;-83
2022/05/08 06:34:45;;;;;;;1.50;1.40;;;23.60;53.50;;;;;;4991125;28;20466;-84
2022/05/08 06:37:12;;;;;;;1.80;1.70;;;23.60;53.50;;;;;;4990912;28;20479;-85
2022/05/08 06:39:38;;;;;;;1.87;1.50;;;23.50;53.40;;;;;;4990749;28;20448;-86
2022/05/08 06:42:12;;;;;;;1.30;1.10;;;23.60;53.50;;;;;;4993200;28;20204;-83
2022/05/08 06:44:41;;;;;;;1.37;1.27;;;23.60;53.50;;;;;;4991349;28;20425;-88
2022/05/08 06:47:11;;;;;;;1.70;1.43;;;23.60;53.50;;;;;;4975347;28;20425;-84
2022/05/08 06:49:45;;;;;;;1.60;1.47;;;23.60;53.50;;;;;;4994198;28;20451;-84
2022/05/08 06:52:14;;;;;;;2.13;1.57;;;23.60;53.50;;;;;;4993542;28;20410;-84
2022/05/08 06:54:43;;;;;;;1.20;1.10;;;23.60;53.50;;;;;;4993172;28;20453;-83
2022/05/08 06:57:12;;;;;;;1.70;1.40;;;23.60;53.50;;;;;;4994779;28;20501;-83
2022/05/08 07:02:35;;;;;;;1.60;1.40;;;23.60;53.50;;;;;;4995621;28;20413;-83
2022/05/08 07:05:15;;;;;;;1.77;1.33;;;23.60;53.50;;;;;;4995810;28;20444;-83
2022/05/08 07:07:46;;;;;;;1.77;1.40;;;23.60;53.50;;;;;;4995004;28;20417;-83
2022/05/08 07:10:16;;;;;;;5.20;3.10;;;23.60;53.50;;;;;;4993612;28;20439;-87
2022/05/08 07:12:42;;;;;;;11.60;5.63;;;23.60;53.50;;;;;;4975744;28;20431;-84
2022/05/08 07:15:12;;;;;;;45.13;17.73;;;23.60;53.50;;;;;;4994042;28;20431;-83
2022/05/08 07:18:02;;;;;;;104.10;43.47;;;23.60;53.50;;;;;;4963170;28;20473;-84
2022/05/08 07:20:31;;;;;;;218.50;89.87;;;23.60;53.60;;;;;;4995343;28;20479;-84
2022/05/08 07:22:58;;;;;;;304.17;123.17;;;23.70;53.70;;;;;;4994249;28;20942;-84
2022/05/08 07:25:24;;;;;;;348.53;144.67;;;23.70;53.70;;;;;;4994549;28;20496;-84
2022/05/08 07:27:50;;;;;;;411.33;167.77;;;23.60;53.60;;;;;;4994874;28;20492;-84
2022/05/08 07:30:17;;;;;;;407.60;178.87;;;23.70;53.70;;;;;;4993726;28;20418;-83
2022/05/08 07:32:44;;;;;;;434.80;189.67;;;23.70;53.70;;;;;;4976903;28;20455;-83
2022/05/08 07:37:58;;;;;;;426.50;191.40;;;23.70;53.80;;;;;;4994131;28;20471;-83
2022/05/08 07:40:26;;;;;;;442.73;195.67;;;23.70;53.80;;;;;;4994026;28;20886;-83
2022/05/08 07:42:52;;;;;;;438.93;193.97;;;23.70;53.80;;;;;;4993845;28;20406;-83
2022/05/08 07:45:18;;;;;;;428.03;198.07;;;23.70;53.80;;;;;;4993181;28;20425;-83
2022/05/08 07:47:47;;;;;;;451.73;189.57;;;23.70;53.80;;;;;;4993221;28;20548;-83
2022/05/08 07:50:22;;;;;;;442.90;195.97;;;23.70;53.80;;;;;;4994552;28;20422;-82
2022/05/08 07:52:52;;;;;;;428.53;192.40;;;23.70;53.90;;;;;;4994374;28;20413;-83
2022/05/08 07:55:21;;;;;;;433.70;193.00;;;23.70;53.90;;;;;;4994675;28;20409;-83
2022/05/08 07:57:51;;;;;;;442.17;192.27;;;23.70;53.90;;;;;;4993296;28;20449;-83
2022/05/08 08:00:20;;;;;;;417.57;181.93;;;23.70;53.90;;;;;;4994140;28;20508;-85
2022/05/08 08:02:46;;;;;;;419.97;181.53;;;23.70;53.90;;;;;;4990509;28;20418;-84
2022/05/08 08:05:13;;;;;;;411.20;176.70;;;23.70;53.80;;;;;;4993625;28;20429;-83
2022/05/08 08:07:40;;;;;;;377.57;172.73;;;23.70;53.80;;;;;;4977191;28;20467;-83
2022/05/08 08:10:07;;;;;;;412.23;172.97;;;23.70;53.80;;;;;;4991920;28;20484;-86
2022/05/08 08:12:34;;;;;;;402.30;177.63;;;23.70;53.80;;;;;;4990250;28;20437;-83
2022/05/08 08:15:02;;;;;;;386.37;165.50;;;23.70;53.80;;;;;;4993378;28;20492;-84
2022/05/08 08:17:29;;;;;;;394.37;166.00;;;23.70;53.80;;;;;;4993711;28;20521;-83
2022/05/08 08:19:56;;;;;;;371.13;158.83;;;23.70;53.80;;;;;;4976516;28;20429;-83
2022/05/08 08:22:22;;;;;;;366.10;155.30;;;23.70;53.80;;;;;;4975629;28;20425;-84
2022/05/08 08:24:51;;;;;;;365.00;156.33;;;23.70;53.90;;;;;;4992072;28;20438;-83
2022/05/08 08:27:19;;;;;;;367.87;146.47;;;23.70;53.80;;;;;;4974007;28;20417;-82
2022/05/08 08:29:45;;;;;;;348.03;150.97;;;23.70;53.80;;;;;;4991889;28;20457;-82
2022/05/08 08:32:11;;;;;;;334.43;141.33;;;23.70;53.80;;;;;;4990551;28;20413;-82
2022/05/08 08:34:37;;;;;;;318.50;138.90;;;23.70;53.80;;;;;;4991194;28;20410;-82
2022/05/08 08:37:08;;;;;;;326.23;139.40;;;23.70;53.80;;;;;;4991960;28;20432;-83
2022/05/08 08:39:35;;;;;;;328.73;138.07;;;23.70;53.80;;;;;;4991208;28;20433;-83
2022/05/08 08:42:33;;;;;;;339.43;143.30;;;23.70;53.80;;;;;;4990780;28;20417;-82
2022/05/08 08:47:52;;;;;;;278.33;124.57;;;23.70;53.90;;;;;;4993211;28;20488;-82
2022/05/08 08:50:19;;;;;;;261.37;117.07;;;23.70;53.80;;;;;;4992760;28;20409;-81
2022/05/08 08:52:47;;;;;;;252.17;110.97;;;23.70;53.90;;;;;;4974721;28;20486;-82
2022/05/08 08:55:16;;;;;;;230.80;101.27;;;23.70;53.80;;;;;;4991860;28;20421;-82
2022/05/08 08:57:43;;;;;;;224.20;98.03;;;23.70;54.40;;;;;;4991406;28;20453;-82
2022/05/08 09:00:10;;;;;;;201.70;93.20;;;23.70;53.80;;;;;;4975929;28;20425;-82
2022/05/08 09:02:37;;;;;;;181.97;84.00;;;23.70;53.80;;;;;;4991762;28;20421;-81
2022/05/08 09:05:08;;;;;;;180.00;82.20;;;23.70;53.80;;;;;;4991686;28;20923;-83
2022/05/08 09:07:44;;;;;;;165.20;77.90;;;23.70;53.80;;;;;;4992396;28;20406;-82
2022/05/08 09:10:21;;;;;;;159.07;72.53;;;23.70;54.40;;;;;;4974667;28;20515;-83
2022/05/08 09:12:53;;;;;;;156.73;70.47;;;23.70;53.70;;;;;;4991543;28;20423;-82
2022/05/08 09:15:22;;;;;;;164.20;69.50;;;23.70;53.70;;;;;;4991738;28;20425;-82
2022/05/08 09:17:49;;;;;;;153.37;66.97;;;23.70;53.70;;;;;;4991581;28;20452;-82
2022/05/08 09:21:54;;;;;;;134.43;62.10;;;23.70;53.70;;;;;;4992273;28;20420;-82
2022/05/08 09:23:45;;;;;;;146.70;61.03;;;23.70;53.70;;;;;;5031387;28;20418;-82
2022/05/08 09:26:28;;;;;;;142.53;63.17;;;23.70;53.80;;;;;;5016491;28;20420;-82
2022/05/08 09:28:54;;;;;;;139.83;63.73;;;23.70;53.80;;;;;;5032825;28;20442;-82
2022/05/08 09:31:22;;;;;;;132.57;61.97;;;23.70;53.80;;;;;;5032523;28;20960;-82
2022/05/08 09:33:51;;;;;;;133.30;60.90;;;23.70;53.80;;;;;;5016031;28;20419;-82
2022/05/08 09:36:25;;;;;;;120.83;58.27;;;23.70;53.80;;;;;;5000693;28;20430;-82
2022/05/08 09:39:00;;;;;;;146.63;63.43;;;23.70;53.70;;;;;;5018003;28;20469;-82
2022/05/08 09:41:42;;;;;;;135.40;61.50;;;23.70;53.80;;;;;;5028836;28;20406;-82
2022/05/08 09:44:19;;;;;;;119.63;53.40;;;23.70;53.80;;;;;;5019060;28;20832;-82
2022/05/08 09:47:00;;;;;;;114.70;54.30;;;23.70;53.80;;;;;;5015612;28;20419;-82
2022/05/08 09:49:45;;;;;;;120.47;59.17;;;23.70;53.80;;;;;;5005129;28;20956;-82
2022/05/08 09:52:14;;;;;;;135.50;60.73;;;23.70;53.80;;;;;;5017622;28;20838;-82
2022/05/08 09:55:16;;;;;;;121.23;57.23;;;23.70;53.80;;;;;;5016640;28;20415;-82
2022/05/08 09:57:43;;;;;;;120.40;53.30;;;23.70;53.80;;;;;;5013530;28;20475;-82
2022/05/08 10:00:16;;;;;;;125.67;58.17;;;23.70;53.80;;;;;;4985667;28;20468;-82
2022/05/08 10:03:00;;;;;;;121.57;54.63;;;23.70;53.80;;;;;;4973687;29;20430;-82
2022/05/08 10:05:28;;;;;;;121.20;53.63;;;23.70;53.80;;;;;;4974133;29;20450;-82
2022/05/08 10:08:03;;;;;;;127.73;58.30;;;23.70;53.90;;;;;;4974462;28;20442;-82
2022/05/08 10:14:05;;;;;;;111.17;52.20;;;23.70;53.90;;;;;;4956369;29;20421;-83
2022/05/08 10:17:02;;;;;;;115.57;51.77;;;23.70;53.90;;;;;;4954410;29;20442;-82
2022/05/08 10:19:31;;;;;;;112.90;51.13;;;23.70;53.90;;;;;;4954087;29;20457;-82
2022/05/08 10:22:13;;;;;;;105.53;51.80;;;23.60;53.80;;;;;;4953702;28;20423;-82
2022/05/08 10:24:47;;;;;;;103.20;49.40;;;23.70;54.00;;;;;;4953715;28;20415;-82
2022/05/08 10:27:43;;;;;;;112.53;50.60;;;23.60;53.80;;;;;;4957683;28;20462;-82
2022/05/08 10:30:51;;;;;;;105.73;49.50;;;23.60;53.80;;;;;;5000144;28;20417;-82
2022/05/08 10:33:41;;;;;;;97.97;46.57;;;23.60;54.40;;;;;;5037813;28;20427;-82
2022/05/08 10:36:08;;;;;;;103.10;48.10;;;23.60;53.90;;;;;;5037763;28;20415;-83
2022/05/08 10:38:39;;;;;;;95.13;48.77;;;23.60;53.90;;;;;;5037455;28;20547;-84
2022/05/08 10:41:43;;;;;;;109.80;53.77;;;23.60;53.90;;;;;;4993978;28;20427;-83
2022/05/08 10:44:42;;;;;;;100.50;47.60;;;23.70;54.00;;;;;;4940819;29;20460;-83
2022/05/08 10:47:54;;;;;;;102.90;49.70;;;23.70;54.00;;;;;;4957517;29;20455;-83
2022/05/08 10:50:23;;;;;;;108.83;44.37;;;23.60;53.90;;;;;;4954578;29;20457;-82
2022/05/08 10:52:50;;;;;;;110.20;50.13;;;23.60;54.00;;;;;;4938952;29;20434;-83
2022/05/08 10:55:36;;;;;;;92.77;45.90;;;23.60;54.00;;;;;;4954395;29;20438;-83
2022/05/08 10:58:07;;;;;;;94.07;45.23;;;23.70;54.00;;;;;;4938750;29;20522;-83
2022/05/08 11:00:33;;;;;;;101.53;47.50;;;23.60;54.00;;;;;;4938135;29;20414;-83
2022/05/08 11:03:00;;;;;;;98.73;44.23;;;23.60;54.00;;;;;;4953969;29;20419;-83
2022/05/08 11:05:30;;;;;;;95.33;46.00;;;23.70;54.00;;;;;;4939146;29;20176;-83
2022/05/08 11:07:58;;;;;;;89.90;40.90;;;23.70;54.00;;;;;;4938602;29;20427;-83
2022/05/08 11:10:34;;;;;;;92.27;43.87;;;23.70;54.00;;;;;;4982722;28;20792;-83
2022/05/08 11:13:06;;;;;;;92.97;44.30;;;23.70;54.00;;;;;;4993643;28;20906;-83
2022/05/08 11:15:39;;;;;;;83.23;41.27;;;23.70;54.00;;;;;;4993797;28;20417;-83
2022/05/08 11:18:17;;;;;;;78.50;40.23;;;23.70;54.00;;;;;;4989641;28;20464;-83
2022/05/08 11:21:02;;;;;;;89.57;42.40;;;23.70;54.00;;;;;;4993825;28;20425;-83
2022/05/08 11:23:39;;;;;;;88.90;43.70;;;23.70;54.10;;;;;;4993192;28;20413;-83
2022/05/08 11:26:13;;;;;;;90.17;42.70;;;23.70;54.00;;;;;;4993837;28;20393;-83
2022/05/08 11:28:57;;;;;;;86.67;43.23;;;23.70;54.10;;;;;;4993837;28;20451;-82
2022/05/08 11:31:26;;;;;;;72.07;36.87;;;23.70;54.10;;;;;;4993685;28;20401;-83
2022/05/08 11:36:40;;;;;;;81.73;38.43;;;23.70;54.10;;;;;;4993663;28;20401;-83
2022/05/08 11:39:14;;;;;;;78.63;39.00;;;23.70;54.10;;;;;;4976745;28;20477;-83
2022/05/08 11:41:50;;;;;;;89.77;39.70;;;23.70;54.10;;;;;;4993321;28;20413;-83
2022/05/08 11:44:27;;;;;;;80.57;37.53;;;23.70;54.10;;;;;;4960599;28;20420;-83
2022/05/08 11:46:55;;;;;;;86.53;38.30;;;23.70;54.10;;;;;;4993702;28;20398;-83
2022/05/08 11:49:30;;;;;;;82.63;39.60;;;23.70;54.10;;;;;;4993263;28;20424;-83
2022/05/08 11:52:06;;;;;;;74.20;37.47;;;23.70;54.20;;;;;;4994586;28;20506;-83
2022/05/08 11:55:01;;;;;;;80.60;39.33;;;23.70;54.20;;;;;;4994773;28;20544;-83
2022/05/08 11:57:28;;;;;;;71.73;36.40;;;23.70;54.20;;;;;;4994240;28;20491;-83
2022/05/08 12:00:19;;;;;;;75.20;36.53;;;23.70;54.20;;;;;;4995837;28;20881;-83
2022/05/08 12:03:02;;;;;;;69.93;35.33;;;23.70;54.20;;;;;;4995668;28;20393;-83
2022/05/08 12:05:31;;;;;;;67.37;35.67;;;23.60;54.20;;;;;;4995557;28;20393;-83
2022/05/08 12:08:01;;;;;;;78.33;36.27;;;23.60;54.20;;;;;;4994648;28;20402;-83
2022/05/08 12:10:43;;;;;;;72.17;36.13;;;23.60;54.20;;;;;;4978873;28;20421;-83
2022/05/08 12:13:17;;;;;;;71.27;35.37;;;23.70;54.20;;;;;;4995007;28;20405;-83
2022/05/08 12:15:46;;;;;;;62.57;33.33;;;23.60;54.20;;;;;;4994448;28;20409;-83
2022/05/08 12:18:17;;;;;;;67.40;36.40;;;23.60;54.20;;;;;;4992544;28;20461;-83
2022/05/08 12:20:48;;;;;;;70.87;34.00;;;23.60;54.10;;;;;;4995680;28;20457;-83
2022/05/08 12:23:23;;;;;;;71.47;34.10;;;23.60;54.20;;;;;;4993364;28;20421;-83
2022/05/08 12:25:49;;;;;;;64.97;33.97;;;23.70;54.20;;;;;;4978324;28;20414;-83
2022/05/08 12:28:19;;;;;;;65.43;31.80;;;23.60;54.20;;;;;;4994541;28;20405;-83
2022/05/08 12:37:56;;;;;;;59.67;32.50;;;23.70;54.30;;;;;;5055821;28;20457;-82
2022/05/08 12:40:22;;;;;;;66.37;31.07;;;23.60;54.20;;;;;;5056449;28;20444;-83
2022/05/08 12:46:45;;;;;;;66.80;32.10;;;23.60;54.20;;;;;;5072129;28;20419;-83
2022/05/08 12:49:16;;;;;;;60.30;31.10;;;23.60;54.20;;;;;;5043211;28;20425;-83
2022/05/08 12:54:54;;;;;;;60.20;30.40;;;23.60;54.30;;;;;;5069398;28;20424;-83
2022/05/08 13:00:35;;;;;;;63.50;30.73;;;23.60;54.30;;;;;;5060647;28;20440;-83
2022/05/08 13:03:03;;;;;;;55.80;29.60;;;23.60;54.30;;;;;;5067821;28;20429;-83
2022/05/08 13:05:36;;;;;;;63.67;28.07;;;23.60;54.30;;;;;;4993861;28;20434;-83
2022/05/08 13:08:02;;;;;;;54.43;30.03;;;23.60;54.30;;;;;;4951759;28;20429;-83
2022/05/08 13:10:33;;;;;;;60.43;29.20;;;23.60;54.30;;;;;;5010024;28;20432;-83
2022/05/08 13:13:00;;;;;;;58.07;29.07;;;23.60;54.30;;;;;;5010571;28;20501;-83
2022/05/08 13:15:26;;;;;;;53.23;27.40;;;23.60;54.30;;;;;;5001613;28;20437;-83
2022/05/08 13:17:52;;;;;;;49.80;28.20;;;23.60;54.30;;;;;;5016935;28;20468;-83
2022/05/08 13:20:18;;;;;;;51.20;28.33;;;23.60;54.30;;;;;;5025561;28;20419;-83
2022/05/08 13:22:44;;;;;;;54.30;28.30;;;23.60;54.30;;;;;;4989696;28;20573;-83
2022/05/08 13:25:10;;;;;;;48.23;27.23;;;23.60;54.30;;;;;;4989844;28;20436;-83
2022/05/08 13:27:40;;;;;;;54.37;28.70;;;23.60;54.30;;;;;;4990067;28;20181;-83
2022/05/08 13:30:07;;;;;;;57.33;28.60;;;23.60;54.30;;;;;;4990344;28;20400;-82
2022/05/08 13:32:36;;;;;;;48.40;24.90;;;23.60;54.20;;;;;;4989592;28;20421;-82
2022/05/08 13:35:03;;;;;;;48.23;26.30;;;23.60;54.30;;;;;;4975368;28;20429;-83
2022/05/08 13:37:30;;;;;;;48.63;26.10;;;23.60;54.20;;;;;;4991934;28;20963;-83
2022/05/08 13:39:59;;;;;;;47.47;25.53;;;23.60;54.20;;;;;;4992085;28;20436;-82
2022/05/08 13:42:25;;;;;;;42.07;24.20;;;23.60;54.20;;;;;;4975051;28;20437;-82
2022/05/08 13:44:55;;;;;;;43.93;23.20;;;23.60;54.20;;;;;;4991820;28;20441;-82
2022/05/08 13:47:22;;;;;;;42.20;23.83;;;23.60;54.20;;;;;;4975090;28;20440;-82
2022/05/08 13:49:48;;;;;;;46.83;21.30;;;23.60;54.20;;;;;;4975645;28;20452;-81
2022/05/08 13:52:14;;;;;;;39.60;20.80;;;23.60;54.10;;;;;;4991222;28;20455;-84
2022/05/08 13:54:42;;;;;;;35.83;19.63;;;23.60;54.10;;;;;;4990772;28;20458;-84